Aviation Digital Data Service (ADDS)

Output produced by METARs form (2358 UTC 25 May 2017)
found at http://aviationweather.gov/adds/metars/
 
KAND 252337Z 2600/2624 26013G21KT P6SM FEW050 
     FM260200 25008KT P6SM FEW200 
     FM260900 25004KT P6SM SKC 
     FM261500 26008G16KT P6SM FEW250